sensor_id;sensor_type;location;lat;lon;timestamp;P1;durP1;ratioP1;P2;durP2;ratioP2
73321;SDS011;61549;37.044;22.128;2022-09-21T00:01:22;6.10;;;4.20;;
73321;SDS011;61549;37.044;22.128;2022-09-21T00:03:57;11.68;;;4.47;;
73321;SDS011;61549;37.044;22.128;2022-09-21T00:06:26;10.13;;;4.70;;
73321;SDS011;61549;37.044;22.128;2022-09-21T00:08:53;8.73;;;4.40;;
73321;SDS011;61549;37.044;22.128;2022-09-21T00:11:21;6.53;;;4.13;;
73321;SDS011;61549;37.044;22.128;2022-09-21T00:13:56;6.15;;;4.50;;
73321;SDS011;61549;37.044;22.128;2022-09-21T00:16:25;5.75;;;4.20;;
73321;SDS011;61549;37.044;22.128;2022-09-21T00:18:51;6.45;;;4.05;;
73321;SDS011;61549;37.044;22.128;2022-09-21T00:21:17;6.25;;;3.60;;
73321;SDS011;61549;37.044;22.128;2022-09-21T00:23:43;6.90;;;4.00;;
73321;SDS011;61549;37.044;22.128;2022-09-21T00:26:11;6.22;;;3.72;;
73321;SDS011;61549;37.044;22.128;2022-09-21T00:28:39;8.50;;;4.22;;
73321;SDS011;61549;37.044;22.128;2022-09-21T00:31:07;8.40;;;4.20;;
73321;SDS011;61549;37.044;22.128;2022-09-21T00:33:38;5.95;;;3.92;;
73321;SDS011;61549;37.044;22.128;2022-09-21T00:36:09;5.75;;;3.90;;
73321;SDS011;61549;37.044;22.128;2022-09-21T00:38:37;6.20;;;3.70;;
73321;SDS011;61549;37.044;22.128;2022-09-21T00:41:04;5.25;;;3.55;;
73321;SDS011;61549;37.044;22.128;2022-09-21T00:43:32;5.53;;;3.70;;
73321;SDS011;61549;37.044;22.128;2022-09-21T00:46:06;5.85;;;3.92;;
73321;SDS011;61549;37.044;22.128;2022-09-21T00:48:44;7.57;;;3.97;;
73321;SDS011;61549;37.044;22.128;2022-09-21T00:51:11;6.30;;;3.85;;
73321;SDS011;61549;37.044;22.128;2022-09-21T00:53:38;8.00;;;4.07;;
73321;SDS011;61549;37.044;22.128;2022-09-21T00:56:04;6.50;;;3.85;;
73321;SDS011;61549;37.044;22.128;2022-09-21T00:58:32;5.50;;;3.83;;
73321;SDS011;61549;37.044;22.128;2022-09-21T01:01:06;7.00;;;3.88;;
73321;SDS011;61549;37.044;22.128;2022-09-21T01:03:34;5.90;;;4.22;;
73321;SDS011;61549;37.044;22.128;2022-09-21T01:05:59;6.10;;;3.90;;
73321;SDS011;61549;37.044;22.128;2022-09-21T01:08:25;6.00;;;3.83;;
73321;SDS011;61549;37.044;22.128;2022-09-21T01:21:25;7.53;;;3.95;;
73321;SDS011;61549;37.044;22.128;2022-09-21T01:29:38;4.97;;;3.88;;
73321;SDS011;61549;37.044;22.128;2022-09-21T01:37:52;8.43;;;4.15;;
73321;SDS011;61549;37.044;22.128;2022-09-21T01:40:32;5.68;;;3.88;;
73321;SDS011;61549;37.044;22.128;2022-09-21T01:43:02;6.68;;;3.80;;
73321;SDS011;61549;37.044;22.128;2022-09-21T01:45:30;6.57;;;3.97;;
73321;SDS011;61549;37.044;22.128;2022-09-21T01:48:00;5.45;;;3.85;;
73321;SDS011;61549;37.044;22.128;2022-09-21T01:50:28;6.28;;;3.97;;
73321;SDS011;61549;37.044;22.128;2022-09-21T01:53:40;7.65;;;4.07;;
73321;SDS011;61549;37.044;22.128;2022-09-21T01:55:48;5.07;;;3.63;;
73321;SDS011;61549;37.044;22.128;2022-09-21T02:01:08;7.45;;;3.90;;
73321;SDS011;61549;37.044;22.128;2022-09-21T02:03:41;5.80;;;4.03;;
73321;SDS011;61549;37.044;22.128;2022-09-21T02:06:13;6.88;;;3.83;;
73321;SDS011;61549;37.044;22.128;2022-09-21T02:08:40;5.25;;;3.72;;
73321;SDS011;61549;37.044;22.128;2022-09-21T02:11:06;6.32;;;4.00;;
73321;SDS011;61549;37.044;22.128;2022-09-21T02:13:35;7.22;;;4.03;;
73321;SDS011;61549;37.044;22.128;2022-09-21T02:24:38;6.57;;;4.13;;
73321;SDS011;61549;37.044;22.128;2022-09-21T02:27:33;6.25;;;3.72;;
73321;SDS011;61549;37.044;22.128;2022-09-21T02:30:18;6.40;;;3.65;;
73321;SDS011;61549;37.044;22.128;2022-09-21T02:32:53;6.38;;;3.88;;
73321;SDS011;61549;37.044;22.128;2022-09-21T02:35:34;6.43;;;3.53;;
73321;SDS011;61549;37.044;22.128;2022-09-21T02:38:34;6.40;;;3.60;;
73321;SDS011;61549;37.044;22.128;2022-09-21T02:46:53;5.35;;;3.75;;
73321;SDS011;61549;37.044;22.128;2022-09-21T02:49:24;7.47;;;3.92;;
73321;SDS011;61549;37.044;22.128;2022-09-21T02:52:04;6.25;;;3.67;;
73321;SDS011;61549;37.044;22.128;2022-09-21T02:54:35;10.77;;;4.20;;
73321;SDS011;61549;37.044;22.128;2022-09-21T02:57:03;8.27;;;4.05;;
73321;SDS011;61549;37.044;22.128;2022-09-21T02:59:31;15.13;;;4.32;;
73321;SDS011;61549;37.044;22.128;2022-09-21T03:01:57;10.18;;;4.05;;
73321;SDS011;61549;37.044;22.128;2022-09-21T03:04:22;14.32;;;4.20;;
73321;SDS011;61549;37.044;22.128;2022-09-21T03:06:49;9.35;;;4.03;;
73321;SDS011;61549;37.044;22.128;2022-09-21T03:09:15;7.88;;;3.63;;
73321;SDS011;61549;37.044;22.128;2022-09-21T03:11:41;6.25;;;3.63;;
73321;SDS011;61549;37.044;22.128;2022-09-21T03:14:07;4.75;;;3.88;;
73321;SDS011;61549;37.044;22.128;2022-09-21T03:16:36;6.63;;;3.67;;
73321;SDS011;61549;37.044;22.128;2022-09-21T03:19:03;6.15;;;3.90;;
73321;SDS011;61549;37.044;22.128;2022-09-21T03:21:30;6.47;;;3.80;;
73321;SDS011;61549;37.044;22.128;2022-09-21T03:23:56;7.32;;;3.90;;
73321;SDS011;61549;37.044;22.128;2022-09-21T03:26:22;8.13;;;4.03;;
73321;SDS011;61549;37.044;22.128;2022-09-21T03:28:48;6.97;;;3.70;;
73321;SDS011;61549;37.044;22.128;2022-09-21T03:31:14;6.20;;;3.80;;
73321;SDS011;61549;37.044;22.128;2022-09-21T03:33:40;6.38;;;3.88;;
73321;SDS011;61549;37.044;22.128;2022-09-21T03:36:06;7.85;;;4.38;;
73321;SDS011;61549;37.044;22.128;2022-09-21T03:38:32;4.90;;;3.75;;
73321;SDS011;61549;37.044;22.128;2022-09-21T03:40:58;7.88;;;3.95;;
73321;SDS011;61549;37.044;22.128;2022-09-21T03:43:24;5.78;;;3.83;;
73321;SDS011;61549;37.044;22.128;2022-09-21T03:45:50;6.82;;;3.90;;
73321;SDS011;61549;37.044;22.128;2022-09-21T03:48:16;5.18;;;3.85;;
73321;SDS011;61549;37.044;22.128;2022-09-21T03:50:42;8.07;;;4.00;;
73321;SDS011;61549;37.044;22.128;2022-09-21T03:53:08;9.73;;;4.15;;
73321;SDS011;61549;37.044;22.128;2022-09-21T03:55:35;9.63;;;4.30;;
73321;SDS011;61549;37.044;22.128;2022-09-21T03:58:02;8.95;;;4.25;;
73321;SDS011;61549;37.044;22.128;2022-09-21T04:00:28;7.55;;;3.78;;
73321;SDS011;61549;37.044;22.128;2022-09-21T04:02:54;8.77;;;4.20;;
73321;SDS011;61549;37.044;22.128;2022-09-21T04:05:20;8.98;;;4.50;;
73321;SDS011;61549;37.044;22.128;2022-09-21T04:07:46;9.90;;;4.20;;
73321;SDS011;61549;37.044;22.128;2022-09-21T04:10:13;4.90;;;3.78;;
73321;SDS011;61549;37.044;22.128;2022-09-21T04:12:44;6.38;;;4.22;;
73321;SDS011;61549;37.044;22.128;2022-09-21T04:15:14;5.70;;;4.25;;
73321;SDS011;61549;37.044;22.128;2022-09-21T04:17:43;5.53;;;3.92;;
73321;SDS011;61549;37.044;22.128;2022-09-21T04:20:10;9.13;;;4.18;;
73321;SDS011;61549;37.044;22.128;2022-09-21T04:22:37;6.78;;;3.90;;
73321;SDS011;61549;37.044;22.128;2022-09-21T04:25:03;9.15;;;4.35;;
73321;SDS011;61549;37.044;22.128;2022-09-21T04:27:30;7.63;;;3.97;;
73321;SDS011;61549;37.044;22.128;2022-09-21T04:29:57;7.90;;;4.32;;
73321;SDS011;61549;37.044;22.128;2022-09-21T04:32:23;8.65;;;3.92;;
73321;SDS011;61549;37.044;22.128;2022-09-21T04:34:49;7.15;;;4.07;;
73321;SDS011;61549;37.044;22.128;2022-09-21T04:37:15;9.57;;;4.38;;
73321;SDS011;61549;37.044;22.128;2022-09-21T04:39:41;7.63;;;4.22;;
73321;SDS011;61549;37.044;22.128;2022-09-21T04:42:07;8.48;;;4.18;;
73321;SDS011;61549;37.044;22.128;2022-09-21T04:44:34;9.05;;;4.25;;
73321;SDS011;61549;37.044;22.128;2022-09-21T04:47:01;8.10;;;4.15;;
73321;SDS011;61549;37.044;22.128;2022-09-21T04:49:26;4.88;;;4.03;;
73321;SDS011;61549;37.044;22.128;2022-09-21T04:51:52;4.85;;;3.70;;
73321;SDS011;61549;37.044;22.128;2022-09-21T04:54:18;7.40;;;4.18;;
73321;SDS011;61549;37.044;22.128;2022-09-21T04:56:44;5.85;;;4.07;;
73321;SDS011;61549;37.044;22.128;2022-09-21T04:59:10;7.05;;;4.00;;
73321;SDS011;61549;37.044;22.128;2022-09-21T05:01:35;9.35;;;4.10;;
73321;SDS011;61549;37.044;22.128;2022-09-21T05:04:01;7.72;;;4.18;;
73321;SDS011;61549;37.044;22.128;2022-09-21T05:06:28;9.20;;;4.50;;
73321;SDS011;61549;37.044;22.128;2022-09-21T05:08:54;11.10;;;4.85;;
73321;SDS011;61549;37.044;22.128;2022-09-21T05:11:38;7.32;;;4.35;;
73321;SDS011;61549;37.044;22.128;2022-09-21T05:14:04;8.00;;;4.88;;
73321;SDS011;61549;37.044;22.128;2022-09-21T05:16:31;9.18;;;4.72;;
73321;SDS011;61549;37.044;22.128;2022-09-21T05:18:57;7.35;;;4.50;;
73321;SDS011;61549;37.044;22.128;2022-09-21T05:21:23;7.85;;;4.15;;
73321;SDS011;61549;37.044;22.128;2022-09-21T05:23:49;7.43;;;4.75;;
73321;SDS011;61549;37.044;22.128;2022-09-21T05:26:15;8.35;;;4.38;;
73321;SDS011;61549;37.044;22.128;2022-09-21T05:28:41;11.23;;;3.97;;
73321;SDS011;61549;37.044;22.128;2022-09-21T05:33:53;6.95;;;3.88;;
73321;SDS011;61549;37.044;22.128;2022-09-21T05:39:28;7.82;;;3.95;;
73321;SDS011;61549;37.044;22.128;2022-09-21T05:41:54;8.38;;;4.00;;
73321;SDS011;61549;37.044;22.128;2022-09-21T05:44:20;6.88;;;3.80;;
73321;SDS011;61549;37.044;22.128;2022-09-21T05:46:58;6.93;;;4.10;;
73321;SDS011;61549;37.044;22.128;2022-09-21T05:49:49;5.72;;;3.70;;
73321;SDS011;61549;37.044;22.128;2022-09-21T05:52:42;6.75;;;3.90;;
73321;SDS011;61549;37.044;22.128;2022-09-21T05:55:33;6.03;;;3.50;;
73321;SDS011;61549;37.044;22.128;2022-09-21T06:03:44;6.00;;;3.60;;
73321;SDS011;61549;37.044;22.128;2022-09-21T06:06:12;7.20;;;3.65;;
73321;SDS011;61549;37.044;22.128;2022-09-21T06:08:38;5.30;;;3.28;;
73321;SDS011;61549;37.044;22.128;2022-09-21T06:11:04;6.57;;;3.45;;
73321;SDS011;61549;37.044;22.128;2022-09-21T06:13:30;5.75;;;3.65;;
73321;SDS011;61549;37.044;22.128;2022-09-21T06:15:56;6.47;;;3.30;;
73321;SDS011;61549;37.044;22.128;2022-09-21T06:18:22;5.72;;;3.20;;
73321;SDS011;61549;37.044;22.128;2022-09-21T06:20:48;5.32;;;3.00;;
73321;SDS011;61549;37.044;22.128;2022-09-21T06:23:14;6.05;;;3.30;;
73321;SDS011;61549;37.044;22.128;2022-09-21T06:25:40;4.05;;;3.00;;
73321;SDS011;61549;37.044;22.128;2022-09-21T06:28:10;4.88;;;2.97;;
73321;SDS011;61549;37.044;22.128;2022-09-21T06:30:37;5.90;;;3.40;;
73321;SDS011;61549;37.044;22.128;2022-09-21T06:33:06;7.57;;;3.90;;
73321;SDS011;61549;37.044;22.128;2022-09-21T06:35:33;6.60;;;3.25;;
73321;SDS011;61549;37.044;22.128;2022-09-21T06:38:00;7.75;;;3.30;;
73321;SDS011;61549;37.044;22.128;2022-09-21T06:40:30;6.13;;;3.30;;
73321;SDS011;61549;37.044;22.128;2022-09-21T06:42:59;7.68;;;3.42;;
73321;SDS011;61549;37.044;22.128;2022-09-21T06:45:27;6.70;;;3.75;;
73321;SDS011;61549;37.044;22.128;2022-09-21T06:47:54;5.38;;;4.15;;
73321;SDS011;61549;37.044;22.128;2022-09-21T06:50:20;8.13;;;4.25;;
73321;SDS011;61549;37.044;22.128;2022-09-21T06:52:46;7.63;;;4.10;;
73321;SDS011;61549;37.044;22.128;2022-09-21T06:55:12;6.25;;;4.10;;
73321;SDS011;61549;37.044;22.128;2022-09-21T06:57:39;7.43;;;4.00;;
73321;SDS011;61549;37.044;22.128;2022-09-21T07:00:05;6.93;;;4.40;;
73321;SDS011;61549;37.044;22.128;2022-09-21T07:02:33;12.23;;;4.07;;
73321;SDS011;61549;37.044;22.128;2022-09-21T07:05:00;6.30;;;4.00;;
73321;SDS011;61549;37.044;22.128;2022-09-21T07:07:26;6.07;;;4.10;;
73321;SDS011;61549;37.044;22.128;2022-09-21T07:09:56;7.72;;;3.90;;
73321;SDS011;61549;37.044;22.128;2022-09-21T07:12:29;7.47;;;4.20;;
73321;SDS011;61549;37.044;22.128;2022-09-21T07:15:01;6.18;;;3.70;;
73321;SDS011;61549;37.044;22.128;2022-09-21T07:17:31;7.25;;;3.75;;
73321;SDS011;61549;37.044;22.128;2022-09-21T07:19:58;7.93;;;4.00;;
73321;SDS011;61549;37.044;22.128;2022-09-21T07:22:26;8.57;;;4.07;;
73321;SDS011;61549;37.044;22.128;2022-09-21T07:25:00;7.57;;;4.15;;
73321;SDS011;61549;37.044;22.128;2022-09-21T07:27:27;6.97;;;3.58;;
73321;SDS011;61549;37.044;22.128;2022-09-21T07:29:54;5.28;;;3.78;;
73321;SDS011;61549;37.044;22.128;2022-09-21T07:32:20;8.35;;;4.13;;
73321;SDS011;61549;37.044;22.128;2022-09-21T07:34:46;6.85;;;3.45;;
73321;SDS011;61549;37.044;22.128;2022-09-21T07:37:12;5.47;;;3.70;;
73321;SDS011;61549;37.044;22.128;2022-09-21T07:39:39;8.43;;;3.85;;
73321;SDS011;61549;37.044;22.128;2022-09-21T07:42:05;9.02;;;4.00;;
73321;SDS011;61549;37.044;22.128;2022-09-21T07:44:31;5.85;;;3.53;;
73321;SDS011;61549;37.044;22.128;2022-09-21T07:46:58;4.88;;;3.67;;
73321;SDS011;61549;37.044;22.128;2022-09-21T07:49:25;8.57;;;3.80;;
73321;SDS011;61549;37.044;22.128;2022-09-21T07:51:51;5.63;;;3.63;;
73321;SDS011;61549;37.044;22.128;2022-09-21T08:10:32;6.28;;;3.50;;
73321;SDS011;61549;37.044;22.128;2022-09-21T08:13:07;8.85;;;4.00;;
73321;SDS011;61549;37.044;22.128;2022-09-21T08:15:33;5.90;;;3.70;;
73321;SDS011;61549;37.044;22.128;2022-09-21T08:17:59;4.28;;;3.22;;
73321;SDS011;61549;37.044;22.128;2022-09-21T08:20:25;6.72;;;3.30;;
73321;SDS011;61549;37.044;22.128;2022-09-21T08:22:59;7.13;;;3.47;;
73321;SDS011;61549;37.044;22.128;2022-09-21T08:25:25;6.82;;;3.65;;
73321;SDS011;61549;37.044;22.128;2022-09-21T08:27:51;9.75;;;3.80;;
73321;SDS011;61549;37.044;22.128;2022-09-21T08:30:24;7.05;;;3.35;;
73321;SDS011;61549;37.044;22.128;2022-09-21T08:32:52;6.65;;;3.35;;
73321;SDS011;61549;37.044;22.128;2022-09-21T08:35:19;7.18;;;3.22;;
73321;SDS011;61549;37.044;22.128;2022-09-21T08:37:45;5.03;;;3.10;;
73321;SDS011;61549;37.044;22.128;2022-09-21T08:40:11;5.68;;;3.47;;
73321;SDS011;61549;37.044;22.128;2022-09-21T08:42:41;6.10;;;3.33;;
